Aérodrome :
LOGIN :

S'inscrire | Disclaimer

   EN    FR    IT 

 










Légende :    VFR   VFR Marginal   IFR   IFR Intensif   IFR Très Intensif
Visi : 
Plafond : 
>= 8 km
>= 3000ft
5 à 8 km
1000 à 3000 ft
1500m à 5 km
500 à 1000 ft
800 à 1500m
200 à 500 ft
< 800m
< 200 ft
Symboles :   Orages  Brouillard  Fortes neiges  Fortes précipitations  Vent > 20 kt
SIGMETs :   Divers  Orages  Givrage  Turbulence  Onde Orograph.  Cendres Volcan.






- Altitude de l'aérodrome : 36 ft
- Code IATA : LTQ


LFAT - Le Touquet

DERNIER METAR :
  • 301630Z AUTO 26006KT 220V310 CAVOK 18/11 Q1014 NOSIG

METARs EXPIRÉS :
  • 301600Z AUTO 25005KT 210V300 CAVOK 17/12 Q1014 NOSIG
  • 301530Z AUTO 26007KT 220V310 CAVOK 17/11 Q1014 NOSIG
  • 301500Z AUTO 28007KT 220V330 9999 FEW019 BKN200 BKN220 16/12 Q1014 NOSIG
  • 301430Z AUTO 26007KT 210V300 9999 ///TCU 17/11 Q1014 BECMG BKN020
  • 301400Z AUTO 26007KT 230V300 9999 FEW018/// BKN084/// BKN140/// //////TCU 16/11 Q1013 BECMG BKN020

TAF TAF LFAT
Valide du 30 à 15h jusqu'au 01 à 00h UTC


301400Z 3015/3024 24008KT 9999 BKN020
ATIS : +33 3 21 06 62 84



MET'MAP, la Météo Aéronautique d'un coup d'oeil ! - Copyright ORBIFLY Décembre 2007 - Disclaimer

ORBIFLY MET'MAP TEAM :

Programmation & Développement : Alexandra Zaïnal
Sur une idée originale de : Baudouin d'Aumeries
Soutien technique & logistique : Manuel Goepfert
Assistance : Marc-Olivier Méhu




SOURCES & CREDITS :

   NOAA